UAL137 PGUM-RJGG
Flight info
| Callsign | UAL137 |
|---|---|
| Flight time | N/A |
| Altitude | 36000 |
| Route | RICHH A597 ASEDA/N0458F380 A597 BUBDO Y47 KEC Y415 NATCH Y755 CARDS |
| Aircraft | B38M/M-SDE1FGHILORVWXY/HB1 |
Departure
| Time | 2026-05-04 14:39 |
|---|---|
| Airport | Antonio B. Won Pat International Airport (PGUM) |
Arrival
| Time | N/A |
|---|---|
| Airport | Chubu Centrair International Airport (RJGG) |
| Time | Latitude | Longitude | Altitude | Speed | Heading |
|---|---|---|---|---|---|
| 2026-05-04 14:01 | 13.49335 | 144.80847 | 309 ft | 0 kts | 333° |
| 2026-05-04 14:27 | 13.49325 | 144.80852 | 300 ft | 4 kts | 334° |
| 2026-05-04 14:27 | 13.49300 | 144.80864 | 301 ft | 4 kts | 335° |
| 2026-05-04 14:28 | 13.49277 | 144.80876 | 299 ft | 4 kts | 322° |
| 2026-05-04 14:28 | 13.49262 | 144.80896 | 300 ft | 4 kts | 279° |
| 2026-05-04 14:28 | 13.49265 | 144.80920 | 300 ft | 2 kts | 242° |
| 2026-05-04 14:28 | 13.49268 | 144.80924 | 303 ft | 0 kts | 242° |
| 2026-05-04 14:32 | 13.49262 | 144.80912 | 300 ft | 5 kts | 242° |
| 2026-05-04 14:33 | 13.49228 | 144.80846 | 299 ft | 14 kts | 242° |
| 2026-05-04 14:33 | 13.49176 | 144.80749 | 299 ft | 16 kts | 241° |
| 2026-05-04 14:33 | 13.49120 | 144.80641 | 298 ft | 18 kts | 242° |
| 2026-05-04 14:33 | 13.49056 | 144.80522 | 301 ft | 20 kts | 241° |
| 2026-05-04 14:34 | 13.48972 | 144.80403 | 298 ft | 22 kts | 221° |
| 2026-05-04 14:34 | 13.48876 | 144.80277 | 297 ft | 23 kts | 241° |
| 2026-05-04 14:34 | 13.48802 | 144.80121 | 296 ft | 25 kts | 245° |
| 2026-05-04 14:34 | 13.48728 | 144.79962 | 293 ft | 25 kts | 245° |
| 2026-05-04 14:35 | 13.48652 | 144.79796 | 292 ft | 27 kts | 244° |
| 2026-05-04 14:35 | 13.48571 | 144.79619 | 292 ft | 28 kts | 246° |
| 2026-05-04 14:35 | 13.48487 | 144.79435 | 293 ft | 29 kts | 245° |
| 2026-05-04 14:35 | 13.48407 | 144.79259 | 288 ft | 27 kts | 245° |
| 2026-05-04 14:36 | 13.48328 | 144.79083 | 287 ft | 28 kts | 245° |
| 2026-05-04 14:36 | 13.48244 | 144.78902 | 287 ft | 27 kts | 245° |
| 2026-05-04 14:36 | 13.48161 | 144.78719 | 288 ft | 29 kts | 244° |
| 2026-05-04 14:36 | 13.48071 | 144.78526 | 284 ft | 31 kts | 244° |
| 2026-05-04 14:37 | 13.47993 | 144.78353 | 282 ft | 25 kts | 246° |
| 2026-05-04 14:37 | 13.47921 | 144.78197 | 281 ft | 19 kts | 244° |
| 2026-05-04 14:37 | 13.47863 | 144.78130 | 276 ft | 12 kts | 183° |
| 2026-05-04 14:37 | 13.47795 | 144.78164 | 268 ft | 9 kts | 113° |
| 2026-05-04 14:38 | 13.47813 | 144.78225 | 268 ft | 5 kts | 64° |
| 2026-05-04 14:38 | 13.47814 | 144.78227 | 268 ft | 1 kts | 64° |
| 2026-05-04 14:38 | 13.47842 | 144.78289 | 269 ft | 33 kts | 64° |
| 2026-05-04 14:38 | 13.48040 | 144.78724 | 275 ft | 99 kts | 65° |
| 2026-05-04 14:39 | 13.48416 | 144.79543 | 286 ft | 152 kts | 65° |
| 2026-05-04 14:39 | 13.48901 | 144.80589 | 625 ft | 171 kts | 67° |
| 2026-05-04 14:39 | 13.49433 | 144.81700 | 1362 ft | 172 kts | 59° |
| 2026-05-04 14:40 | 13.51517 | 144.82865 | 2608 ft | 196 kts | 9° |
| 2026-05-04 14:40 | 13.52982 | 144.82609 | 2902 ft | 235 kts | 340° |
| 2026-05-04 14:40 | 13.54474 | 144.81775 | 3390 ft | 253 kts | 336° |
| 2026-05-04 14:40 | 13.56024 | 144.80910 | 4258 ft | 255 kts | 336° |
| 2026-05-04 14:41 | 13.57611 | 144.80036 | 4937 ft | 266 kts | 336° |
| 2026-05-04 14:41 | 13.59309 | 144.79118 | 5424 ft | 283 kts | 336° |
| 2026-05-04 14:41 | 13.62844 | 144.77219 | 6974 ft | 289 kts | 336° |
| 2026-05-04 14:42 | 13.66429 | 144.75295 | 8527 ft | 293 kts | 336° |
| 2026-05-04 14:42 | 13.68241 | 144.74321 | 9320 ft | 295 kts | 336° |
| 2026-05-04 14:42 | 13.70069 | 144.73340 | 10066 ft | 297 kts | 335° |
| 2026-05-04 14:43 | 13.71913 | 144.72351 | 10492 ft | 313 kts | 335° |
| 2026-05-04 14:43 | 13.73905 | 144.71288 | 10770 ft | 331 kts | 335° |
| 2026-05-04 14:43 | 13.75988 | 144.70176 | 11215 ft | 342 kts | 336° |
| 2026-05-04 14:43 | 13.78103 | 144.69044 | 11903 ft | 344 kts | 335° |
| 2026-05-04 14:44 | 13.80246 | 144.67892 | 12496 ft | 349 kts | 335° |
| 2026-05-04 14:44 | 13.82407 | 144.66731 | 13187 ft | 352 kts | 333° |
| 2026-05-04 14:44 | 13.84595 | 144.65552 | 13820 ft | 357 kts | 333° |
| 2026-05-04 14:44 | 13.86802 | 144.64366 | 14399 ft | 359 kts | 334° |
| 2026-05-04 14:45 | 13.89030 | 144.63167 | 14984 ft | 362 kts | 334° |
| 2026-05-04 14:45 | 13.91252 | 144.61970 | 15596 ft | 364 kts | 334° |
| 2026-05-04 14:45 | 13.93498 | 144.60762 | 16191 ft | 366 kts | 334° |
| 2026-05-04 14:45 | 13.95761 | 144.59543 | 16755 ft | 368 kts | 334° |
| 2026-05-04 14:46 | 13.98043 | 144.58315 | 17318 ft | 371 kts | 333° |
| 2026-05-04 14:46 | 14.00338 | 144.57078 | 17852 ft | 373 kts | 333° |
| 2026-05-04 14:46 | 14.02654 | 144.55830 | 18359 ft | 375 kts | 334° |
| 2026-05-04 14:46 | 14.04978 | 144.54578 | 18826 ft | 377 kts | 334° |
| 2026-05-04 14:47 | 14.07282 | 144.53334 | 19242 ft | 380 kts | 333° |
| 2026-05-04 14:47 | 14.09634 | 144.52067 | 19649 ft | 382 kts | 333° |
| 2026-05-04 14:47 | 14.11993 | 144.50795 | 20115 ft | 383 kts | 333° |
| 2026-05-04 14:47 | 14.14372 | 144.49511 | 20485 ft | 387 kts | 333° |
| 2026-05-04 14:48 | 14.16764 | 144.48220 | 20895 ft | 389 kts | 333° |
| 2026-05-04 14:48 | 14.19171 | 144.46921 | 21306 ft | 392 kts | 333° |
| 2026-05-04 14:48 | 14.21588 | 144.45617 | 21775 ft | 392 kts | 332° |
| 2026-05-04 14:48 | 14.24010 | 144.44310 | 22183 ft | 394 kts | 333° |
| 2026-05-04 14:49 | 14.26456 | 144.42987 | 22573 ft | 397 kts | 333° |
| 2026-05-04 14:49 | 14.28888 | 144.41673 | 22935 ft | 400 kts | 332° |
| 2026-05-04 14:49 | 14.31367 | 144.40335 | 23387 ft | 401 kts | 332° |
| 2026-05-04 14:49 | 14.33847 | 144.38994 | 23719 ft | 404 kts | 332° |
| 2026-05-04 14:50 | 14.36340 | 144.37647 | 24085 ft | 404 kts | 332° |
| 2026-05-04 14:50 | 14.38828 | 144.36300 | 24438 ft | 406 kts | 332° |
| 2026-05-04 14:50 | 14.40496 | 144.35398 | 24630 ft | 408 kts | 332° |
| 2026-05-04 14:50 | 14.43018 | 144.34033 | 24959 ft | 410 kts | 332° |
| 2026-05-04 14:51 | 14.46384 | 144.32212 | 25355 ft | 414 kts | 332° |
| 2026-05-04 14:51 | 14.48117 | 144.31274 | 25540 ft | 416 kts | 331° |
| 2026-05-04 14:51 | 14.50680 | 144.29886 | 25876 ft | 418 kts | 332° |
| 2026-05-04 14:51 | 14.53266 | 144.28486 | 26170 ft | 420 kts | 331° |
| 2026-05-04 14:52 | 14.55831 | 144.27096 | 26498 ft | 422 kts | 330° |
| 2026-05-04 14:52 | 14.58434 | 144.25685 | 26839 ft | 423 kts | 330° |
| 2026-05-04 14:52 | 14.61043 | 144.24271 | 27132 ft | 425 kts | 331° |
| 2026-05-04 14:52 | 14.63679 | 144.22841 | 27383 ft | 429 kts | 331° |
| 2026-05-04 14:53 | 14.66339 | 144.21399 | 27671 ft | 431 kts | 331° |
| 2026-05-04 14:53 | 14.69004 | 144.19953 | 27996 ft | 433 kts | 331° |
| 2026-05-04 14:53 | 14.71645 | 144.18519 | 28274 ft | 435 kts | 330° |
| 2026-05-04 14:53 | 14.74337 | 144.17058 | 28590 ft | 437 kts | 330° |
| 2026-05-04 14:54 | 14.77036 | 144.15592 | 28914 ft | 438 kts | 330° |
| 2026-05-04 14:54 | 14.79752 | 144.14118 | 29117 ft | 442 kts | 330° |
| 2026-05-04 14:54 | 14.82468 | 144.12644 | 29465 ft | 442 kts | 329° |
| 2026-05-04 14:54 | 14.85195 | 144.11161 | 29794 ft | 443 kts | 330° |
| 2026-05-04 14:55 | 14.87929 | 144.09674 | 30041 ft | 445 kts | 330° |
| 2026-05-04 14:55 | 14.90647 | 144.08196 | 30212 ft | 448 kts | 330° |
| 2026-05-04 14:55 | 14.93411 | 144.06693 | 30476 ft | 449 kts | 330° |
| 2026-05-04 14:55 | 14.96189 | 144.05181 | 30694 ft | 450 kts | 329° |
| 2026-05-04 14:56 | 14.98908 | 144.03702 | 31005 ft | 449 kts | 330° |
| 2026-05-04 14:56 | 15.01685 | 144.02191 | 31227 ft | 451 kts | 330° |
| 2026-05-04 14:56 | 15.04457 | 144.00680 | 31440 ft | 452 kts | 330° |
| 2026-05-04 14:56 | 15.07215 | 143.99178 | 31692 ft | 453 kts | 330° |
| 2026-05-04 14:57 | 15.09963 | 143.97681 | 31904 ft | 455 kts | 330° |
| 2026-05-04 14:57 | 15.12767 | 143.96152 | 32154 ft | 455 kts | 330° |
| 2026-05-04 14:57 | 15.15575 | 143.94621 | 32397 ft | 456 kts | 330° |
| 2026-05-04 14:57 | 15.18302 | 143.93134 | 32606 ft | 457 kts | 330° |
| 2026-05-04 14:58 | 15.21118 | 143.91598 | 32850 ft | 457 kts | 330° |
| 2026-05-04 14:58 | 15.23877 | 143.90091 | 33096 ft | 457 kts | 330° |
| 2026-05-04 14:58 | 15.26646 | 143.88578 | 33379 ft | 456 kts | 330° |
| 2026-05-04 14:58 | 15.29454 | 143.87044 | 33665 ft | 456 kts | 330° |
| 2026-05-04 14:59 | 15.32259 | 143.85512 | 33977 ft | 454 kts | 330° |
| 2026-05-04 14:59 | 15.35054 | 143.83983 | 34242 ft | 453 kts | 330° |
| 2026-05-04 14:59 | 15.40587 | 143.80957 | 34710 ft | 452 kts | 330° |
| 2026-05-04 15:00 | 15.43380 | 143.79429 | 34915 ft | 452 kts | 330° |
| 2026-05-04 15:00 | 15.46161 | 143.77907 | 35132 ft | 452 kts | 330° |
| 2026-05-04 15:00 | 15.48940 | 143.76386 | 35320 ft | 452 kts | 330° |
| 2026-05-04 15:01 | 15.54512 | 143.73334 | 35724 ft | 453 kts | 329° |
| 2026-05-04 15:01 | 15.57305 | 143.71804 | 35905 ft | 453 kts | 329° |
| 2026-05-04 15:01 | 15.62859 | 143.68760 | 35971 ft | 453 kts | 329° |
| 2026-05-04 15:02 | 15.68422 | 143.65709 | 35961 ft | 451 kts | 329° |
| 2026-05-04 15:02 | 15.73973 | 143.62663 | 35965 ft | 452 kts | 329° |
| 2026-05-04 15:03 | 15.79535 | 143.59610 | 35959 ft | 451 kts | 329° |
| 2026-05-04 15:03 | 15.85054 | 143.56578 | 35967 ft | 451 kts | 329° |
| 2026-05-04 15:04 | 15.90618 | 143.53519 | 35971 ft | 451 kts | 329° |
| 2026-05-04 15:04 | 15.96144 | 143.50479 | 35972 ft | 451 kts | 329° |
| 2026-05-04 15:05 | 16.01694 | 143.47424 | 35970 ft | 451 kts | 329° |
| 2026-05-04 15:05 | 16.07214 | 143.44384 | 35974 ft | 452 kts | 329° |
| 2026-05-04 15:06 | 16.12774 | 143.41320 | 35978 ft | 451 kts | 329° |